createdAt,value
2018-10-18T00:01:43.155Z,48.27
2018-10-18T00:04:11.726Z,47.83
2018-10-18T00:06:40.271Z,49.13
2018-10-18T00:09:10.729Z,45.77
2018-10-18T00:11:39.262Z,47.57
2018-10-18T00:14:08.052Z,49.17
2018-10-18T00:16:36.612Z,46.77
2018-10-18T00:19:05.400Z,45.10
2018-10-18T00:21:34.075Z,44.30
2018-10-18T00:24:02.713Z,45.77
2018-10-18T00:26:31.246Z,46.23
2018-10-18T00:29:00.000Z,45.10
2018-10-18T00:31:28.902Z,45.83
2018-10-18T00:33:57.459Z,44.27
2018-10-18T00:36:26.033Z,46.00
2018-10-18T00:38:54.588Z,45.10
2018-10-18T00:41:23.287Z,47.73
2018-10-18T00:43:51.896Z,45.57
2018-10-18T00:46:20.578Z,45.13
2018-10-18T00:48:49.130Z,45.57
2018-10-18T00:51:17.659Z,44.47
2018-10-18T00:53:46.264Z,47.63
2018-10-18T00:56:14.965Z,48.80
2018-10-18T00:58:43.512Z,46.37
2018-10-18T01:01:12.064Z,47.87
2018-10-18T01:03:40.668Z,48.47
2018-10-18T01:06:09.296Z,46.13
2018-10-18T01:08:37.815Z,47.43
2018-10-18T01:11:06.387Z,47.60
2018-10-18T01:13:34.990Z,47.07
2018-10-18T01:16:03.635Z,45.77
2018-10-18T01:18:32.309Z,48.60
2018-10-18T01:21:00.947Z,48.73
2018-10-18T01:23:29.585Z,49.83
2018-10-18T01:25:58.211Z,51.20
2018-10-18T01:28:26.902Z,49.87
2018-10-18T01:30:55.534Z,51.70
2018-10-18T01:33:24.140Z,52.17
2018-10-18T01:35:52.836Z,50.70
2018-10-18T01:38:21.612Z,50.03
2018-10-18T01:40:50.239Z,50.87
2018-10-18T01:43:19.008Z,51.90
2018-10-18T01:45:47.576Z,52.20
2018-10-18T01:48:16.333Z,51.70
2018-10-18T01:50:44.873Z,53.87
2018-10-18T01:53:13.460Z,52.67
2018-10-18T01:55:42.220Z,51.27
2018-10-18T01:58:10.900Z,52.17
2018-10-18T02:00:39.548Z,52.27
2018-10-18T02:03:08.489Z,55.30
2018-10-18T02:05:37.163Z,54.30
2018-10-18T02:08:05.752Z,54.73
2018-10-18T02:10:34.379Z,51.70
2018-10-18T02:13:02.958Z,54.73
2018-10-18T02:15:31.613Z,56.50
2018-10-18T02:18:00.248Z,55.33
2018-10-18T02:20:28.892Z,54.97
2018-10-18T02:22:57.460Z,56.63
2018-10-18T02:25:26.183Z,57.73
2018-10-18T02:27:54.748Z,57.13
2018-10-18T02:30:23.407Z,57.27
2018-10-18T02:32:52.211Z,57.90
2018-10-18T02:35:20.889Z,58.57
2018-10-18T02:37:49.468Z,57.10
2018-10-18T02:40:18.031Z,56.93
2018-10-18T02:42:46.592Z,58.90
2018-10-18T02:45:15.256Z,55.20
2018-10-18T02:47:43.917Z,54.20
2018-10-18T02:50:12.605Z,53.80
2018-10-18T02:52:41.114Z,52.23
2018-10-18T02:55:09.806Z,52.10
2018-10-18T02:57:38.493Z,51.80
2018-10-18T03:00:07.488Z,48.30
2018-10-18T03:02:36.010Z,49.10
2018-10-18T03:05:04.927Z,50.67
2018-10-18T03:07:33.441Z,46.60
2018-10-18T03:10:01.999Z,43.73
2018-10-18T03:12:30.694Z,46.23
2018-10-18T03:14:59.259Z,43.13
2018-10-18T03:17:27.804Z,43.67
2018-10-18T03:19:56.345Z,44.03
2018-10-18T03:22:24.932Z,40.60
2018-10-18T03:24:53.557Z,42.97
2018-10-18T03:27:22.195Z,42.03
2018-10-18T03:29:50.820Z,43.00
2018-10-18T03:32:19.321Z,41.20
2018-10-18T03:34:47.929Z,39.70
2018-10-18T03:37:16.562Z,39.37
2018-10-18T03:39:45.260Z,42.23
2018-10-18T03:42:13.888Z,40.27
2018-10-18T03:44:42.495Z,41.33
2018-10-18T03:47:11.013Z,41.57
2018-10-18T03:49:39.602Z,39.17
2018-10-18T03:52:08.692Z,37.97
2018-10-18T03:54:37.311Z,38.37
2018-10-18T03:57:05.886Z,37.13
2018-10-18T03:59:34.570Z,39.30
2018-10-18T04:02:03.183Z,38.07
2018-10-18T04:04:31.817Z,37.73
2018-10-18T04:07:00.352Z,40.03
2018-10-18T04:09:28.925Z,37.83
2018-10-18T04:11:57.599Z,39.70
2018-10-18T04:14:26.261Z,39.27
2018-10-18T04:16:54.888Z,38.70
2018-10-18T04:19:23.513Z,38.13
2018-10-18T04:21:52.076Z,39.27
2018-10-18T04:24:20.744Z,39.30
2018-10-18T04:26:49.312Z,38.13
2018-10-18T04:29:17.833Z,38.17
2018-10-18T04:31:46.455Z,35.13
2018-10-18T04:34:15.004Z,39.20
2018-10-18T04:36:43.640Z,37.33
2018-10-18T04:39:13.715Z,38.30
2018-10-18T04:41:42.530Z,36.07
2018-10-18T04:44:11.212Z,37.47
2018-10-18T04:46:39.872Z,38.20
2018-10-18T04:49:09.568Z,39.17
2018-10-18T04:51:38.237Z,36.70
2018-10-18T04:54:06.929Z,37.73
2018-10-18T04:56:35.511Z,38.33
2018-10-18T04:59:04.156Z,38.40
2018-10-18T05:01:32.953Z,37.30
2018-10-18T05:04:01.620Z,39.57
2018-10-18T05:06:30.256Z,41.13
2018-10-18T05:08:58.844Z,39.90
2018-10-18T05:11:28.099Z,38.67
2018-10-18T05:13:56.780Z,37.90
2018-10-18T05:16:25.508Z,38.30
2018-10-18T05:18:54.187Z,38.73
2018-10-18T05:21:22.890Z,37.63
2018-10-18T05:23:51.948Z,39.37
2018-10-18T05:26:20.522Z,39.00
2018-10-18T05:28:49.148Z,37.97
2018-10-18T05:31:17.976Z,36.90
2018-10-18T05:33:46.843Z,37.23
2018-10-18T05:36:15.485Z,35.23
2018-10-18T05:38:44.075Z,34.43
2018-10-18T05:41:12.642Z,37.87
2018-10-18T05:43:41.414Z,36.00
2018-10-18T05:46:10.237Z,37.53
2018-10-18T05:48:38.880Z,37.00
2018-10-18T05:51:07.508Z,36.23
2018-10-18T05:53:36.299Z,36.57
2018-10-18T05:56:04.876Z,36.37
2018-10-18T05:58:33.719Z,34.47
2018-10-18T06:01:02.378Z,35.87
2018-10-18T06:03:31.048Z,35.57
2018-10-18T06:05:59.788Z,34.33
2018-10-18T06:08:28.552Z,34.33
2018-10-18T06:11:08.263Z,34.17
2018-10-18T06:13:37.048Z,32.97
2018-10-18T06:16:05.757Z,33.40
2018-10-18T06:18:34.562Z,33.27
2018-10-18T06:21:03.276Z,34.50
2018-10-18T06:23:32.091Z,33.00
2018-10-18T06:26:00.837Z,32.67
2018-10-18T06:28:29.435Z,33.33
2018-10-18T06:30:58.147Z,33.67
2018-10-18T06:33:26.971Z,32.70
2018-10-18T06:35:55.665Z,34.93
2018-10-18T06:38:24.335Z,33.73
2018-10-18T06:40:53.137Z,34.67
2018-10-18T06:43:21.811Z,33.37
2018-10-18T06:45:50.585Z,34.63
2018-10-18T06:48:19.385Z,33.97
2018-10-18T06:50:48.033Z,31.07
2018-10-18T06:53:16.762Z,32.57
2018-10-18T06:55:45.469Z,34.63
2018-10-18T06:58:14.180Z,32.30
2018-10-18T07:00:42.798Z,34.53
2018-10-18T07:03:11.439Z,34.27
2018-10-18T07:05:40.275Z,33.30
2018-10-18T07:08:08.984Z,35.83
2018-10-18T07:10:37.749Z,33.57
2018-10-18T07:13:06.499Z,31.77
2018-10-18T07:15:35.111Z,32.73
2018-10-18T07:18:03.900Z,33.73
2018-10-18T07:20:32.679Z,30.87
2018-10-18T07:23:02.063Z,31.87
2018-10-18T07:25:30.672Z,32.30
2018-10-18T07:27:59.368Z,30.80
2018-10-18T07:30:27.947Z,31.73
2018-10-18T07:32:56.711Z,32.43
2018-10-18T07:35:25.356Z,29.63
2018-10-18T07:37:54.195Z,30.43
2018-10-18T07:40:23.012Z,29.87
2018-10-18T07:42:51.888Z,28.47
2018-10-18T07:45:20.545Z,29.80
2018-10-18T07:47:49.754Z,29.87
2018-10-18T07:50:18.822Z,29.73
2018-10-18T07:52:47.391Z,28.23
2018-10-18T07:55:16.499Z,28.87
2018-10-18T07:57:45.059Z,26.27
2018-10-18T08:00:15.081Z,27.87
2018-10-18T08:02:44.404Z,27.53
2018-10-18T08:05:13.527Z,28.23
2018-10-18T08:07:42.359Z,27.87
2018-10-18T08:10:13.887Z,27.13
2018-10-18T08:12:42.605Z,26.73
2018-10-18T08:15:12.651Z,28.67
2018-10-18T08:17:41.657Z,28.03
2018-10-18T08:20:10.887Z,25.63
2018-10-18T08:22:39.991Z,24.13
2018-10-18T08:25:08.597Z,26.90
2018-10-18T08:27:37.588Z,24.73
2018-10-18T08:30:11.090Z,24.27
2018-10-18T08:32:39.673Z,23.10
2018-10-18T08:35:09.711Z,23.93
2018-10-18T08:37:38.440Z,25.13
2018-10-18T08:40:07.952Z,25.47
2018-10-18T08:42:36.523Z,26.43
2018-10-18T08:45:05.761Z,30.00
2018-10-18T08:47:34.358Z,29.03
2018-10-18T08:50:03.093Z,29.17
2018-10-18T08:52:31.679Z,30.47
2018-10-18T08:55:00.274Z,31.63
2018-10-18T08:57:28.747Z,31.03
2018-10-18T08:59:57.285Z,29.33
2018-10-18T09:02:25.803Z,28.60
2018-10-18T09:04:54.422Z,30.73
2018-10-18T09:07:22.993Z,28.40
2018-10-18T09:09:51.480Z,27.47
2018-10-18T09:12:20.087Z,25.40
2018-10-18T09:14:48.576Z,24.87
2018-10-18T09:17:17.077Z,23.10
2018-10-18T09:19:45.646Z,23.53
2018-10-18T09:22:14.308Z,23.83
2018-10-18T09:24:42.879Z,23.67
2018-10-18T09:27:11.379Z,24.87
2018-10-18T09:29:39.907Z,22.90
2018-10-18T09:32:08.391Z,23.63
2018-10-18T09:34:36.978Z,23.93
2018-10-18T09:37:06.153Z,24.53
2018-10-18T09:39:34.624Z,24.37
2018-10-18T09:42:03.146Z,27.07
2018-10-18T09:44:32.299Z,27.33
2018-10-18T09:47:01.070Z,24.83
2018-10-18T09:49:29.696Z,26.00
2018-10-18T09:51:58.262Z,27.40
2018-10-18T09:54:26.847Z,27.60
2018-10-18T09:56:55.435Z,28.67
2018-10-18T09:59:24.024Z,24.40
2018-10-18T10:01:57.821Z,26.10
2018-10-18T10:04:26.482Z,24.57
2018-10-18T10:06:55.207Z,25.80
2018-10-18T10:09:23.735Z,24.57
2018-10-18T10:11:52.497Z,23.30
2018-10-18T10:14:21.004Z,26.57
2018-10-18T10:16:49.590Z,25.53
2018-10-18T10:19:18.386Z,24.33
2018-10-18T10:21:46.899Z,23.73
2018-10-18T10:24:15.522Z,23.00
2018-10-18T10:26:44.563Z,24.40
2018-10-18T10:29:13.248Z,25.43
2018-10-18T10:31:42.003Z,24.33
2018-10-18T10:34:10.765Z,25.93
2018-10-18T10:36:39.407Z,26.23
2018-10-18T10:39:09.432Z,24.33
2018-10-18T10:41:37.887Z,22.67
2018-10-18T10:44:08.328Z,20.80
2018-10-18T10:46:38.084Z,19.63
2018-10-18T10:49:07.377Z,17.20
2018-10-18T10:51:36.041Z,16.93
2018-10-18T10:54:05.553Z,18.20
2018-10-18T10:56:34.144Z,18.17
2018-10-18T10:59:12.376Z,17.53
2018-10-18T11:01:41.172Z,17.97
2018-10-18T11:04:09.902Z,16.93
2018-10-18T11:06:38.419Z,15.30
2018-10-18T11:09:09.076Z,14.53
2018-10-18T11:11:37.680Z,14.33
2018-10-18T11:14:06.396Z,12.43
2018-10-18T11:16:35.013Z,13.70
2018-10-18T11:19:03.953Z,12.63
2018-10-18T11:21:32.957Z,13.47
2018-10-18T11:24:01.694Z,13.50
2018-10-18T11:26:30.227Z,13.70
2018-10-18T11:28:58.912Z,14.90
2018-10-18T11:31:27.444Z,14.50
2018-10-18T11:33:56.547Z,14.57
2018-10-18T11:36:25.047Z,14.53
2018-10-18T11:38:53.691Z,15.30
2018-10-18T11:41:22.534Z,15.17
2018-10-18T11:43:51.468Z,14.63
2018-10-18T11:46:20.460Z,15.30
2018-10-18T11:48:49.148Z,17.13
2018-10-18T11:51:17.871Z,15.30
2018-10-18T11:53:46.491Z,16.17
2018-10-18T11:56:15.200Z,17.20
2018-10-18T11:58:43.794Z,17.50
2018-10-18T12:01:13.311Z,17.10
2018-10-18T12:03:42.038Z,17.63
2018-10-18T12:06:10.763Z,16.83
2018-10-18T12:08:39.465Z,13.90
2018-10-18T12:11:08.167Z,13.47
2018-10-18T12:13:36.862Z,13.00
2018-10-18T12:16:05.821Z,11.03
2018-10-18T12:18:34.403Z,12.47
2018-10-18T12:21:03.198Z,11.10
2018-10-18T12:23:31.817Z,11.10
2018-10-18T12:26:00.557Z,11.53
2018-10-18T12:28:29.191Z,11.07
2018-10-18T12:30:57.833Z,11.50
2018-10-18T12:33:26.568Z,12.10
2018-10-18T12:35:55.204Z,11.60
2018-10-18T12:38:23.801Z,10.67
2018-10-18T12:40:52.659Z,11.53
2018-10-18T12:43:21.323Z,11.77
2018-10-18T12:45:50.313Z,10.87
2018-10-18T12:48:19.074Z,10.40
2018-10-18T12:50:47.522Z,10.17
2018-10-18T12:53:16.579Z,9.03
2018-10-18T12:55:45.120Z,8.73
2018-10-18T12:58:13.698Z,9.97
2018-10-18T13:00:42.289Z,8.77
2018-10-18T13:03:10.813Z,9.87
2018-10-18T13:05:39.473Z,9.20
2018-10-18T13:08:08.081Z,8.60
2018-10-18T13:10:37.141Z,8.60
2018-10-18T13:13:06.181Z,9.37
2018-10-18T13:15:35.529Z,8.57
2018-10-18T13:18:04.191Z,6.90
2018-10-18T13:20:32.779Z,6.83
2018-10-18T13:23:02.018Z,6.30
2018-10-18T13:25:30.993Z,5.57
2018-10-18T13:27:59.780Z,6.10
2018-10-18T13:30:28.380Z,4.80
2018-10-18T13:32:57.160Z,5.27
2018-10-18T13:35:25.814Z,4.33
2018-10-18T13:37:54.455Z,3.77
2018-10-18T13:40:24.172Z,4.07
2018-10-18T13:42:53.659Z,4.27
2018-10-18T13:45:22.275Z,4.80
2018-10-18T13:47:51.232Z,4.80
2018-10-18T13:50:19.977Z,5.87
2018-10-18T13:52:49.062Z,4.90
2018-10-18T13:55:17.871Z,6.67
2018-10-18T13:57:48.795Z,5.70
2018-10-18T14:00:23.830Z,5.33
2018-10-18T14:02:53.569Z,6.00
2018-10-18T14:05:22.563Z,5.20
2018-10-18T14:07:52.248Z,5.03
2018-10-18T14:10:21.275Z,5.40
2018-10-18T14:12:50.499Z,5.73
2018-10-18T14:15:19.327Z,4.93
2018-10-18T14:17:48.016Z,6.43
2018-10-18T14:20:16.879Z,5.67
2018-10-18T14:22:45.397Z,5.80
2018-10-18T14:25:13.948Z,5.87
2018-10-18T14:27:42.705Z,5.73
2018-10-18T14:30:12.887Z,7.47
2018-10-18T14:32:41.427Z,6.40
2018-10-18T14:35:11.593Z,6.97
2018-10-18T14:37:40.232Z,6.33
2018-10-18T14:40:11.254Z,6.17
2018-10-18T14:42:40.053Z,6.37
2018-10-18T14:45:10.031Z,6.50
2018-10-18T14:47:38.778Z,7.77
2018-10-18T14:50:09.158Z,8.43
2018-10-18T14:52:37.764Z,8.57
2018-10-18T14:55:06.696Z,7.70
2018-10-18T14:57:35.671Z,8.23
2018-10-18T15:00:04.684Z,8.17
2018-10-18T15:02:33.377Z,8.77
2018-10-18T15:05:02.281Z,8.17
2018-10-18T15:07:31.120Z,7.73
2018-10-18T15:09:59.761Z,7.77
2018-10-18T15:12:28.413Z,7.67
2018-10-18T15:14:57.128Z,8.37
2018-10-18T15:17:25.772Z,7.20
2018-10-18T15:19:54.846Z,6.60
2018-10-18T15:22:23.748Z,6.57
2018-10-18T15:24:52.791Z,8.10
2018-10-18T15:27:22.480Z,6.80
2018-10-18T15:29:51.539Z,8.30
2018-10-18T15:32:20.441Z,5.80
2018-10-18T15:34:49.559Z,5.57
2018-10-18T15:37:18.526Z,5.97
2018-10-18T15:39:47.335Z,4.33
2018-10-18T15:42:16.288Z,3.90
2018-10-18T15:44:45.154Z,3.77
2018-10-18T15:47:14.116Z,3.70
2018-10-18T15:49:43.027Z,4.10
2018-10-18T15:52:11.953Z,1.87
2018-10-18T15:54:41.342Z,2.43
2018-10-18T15:57:32.855Z,15.67
2018-10-18T16:00:01.821Z,2.97
2018-10-18T16:02:30.599Z,2.50
2018-10-18T16:04:59.347Z,3.87
2018-10-18T16:07:28.154Z,3.07
2018-10-18T16:09:56.792Z,2.60
2018-10-18T16:12:26.036Z,2.60
2018-10-18T16:14:55.255Z,2.80
2018-10-18T16:17:24.418Z,2.67
2018-10-18T16:19:53.260Z,2.87
2018-10-18T16:22:22.083Z,4.13
2018-10-18T16:24:50.829Z,3.70
2018-10-18T16:27:19.537Z,3.83
2018-10-18T16:29:48.250Z,4.33
2018-10-18T16:32:17.001Z,4.20
2018-10-18T16:34:45.738Z,4.50
2018-10-18T16:37:14.540Z,5.37
2018-10-18T16:39:43.262Z,4.87
2018-10-18T16:42:12.896Z,5.17
2018-10-18T16:44:54.784Z,8.03
2018-10-18T16:47:23.739Z,6.13
2018-10-18T16:49:52.416Z,5.60
2018-10-18T16:52:21.133Z,5.63
2018-10-18T16:54:50.413Z,5.53
2018-10-18T16:57:19.272Z,6.13
2018-10-18T16:59:47.922Z,6.50
2018-10-18T17:02:16.724Z,6.73
2018-10-18T17:04:45.498Z,5.87
2018-10-18T17:07:14.428Z,6.47
2018-10-18T17:09:43.183Z,7.30
2018-10-18T17:12:11.969Z,7.80
2018-10-18T17:14:40.716Z,7.87
2018-10-18T17:17:09.407Z,8.60
2018-10-18T17:19:38.015Z,8.93
2018-10-18T17:22:06.656Z,7.93
2018-10-18T17:24:35.249Z,9.53
2018-10-18T17:27:03.987Z,9.53
2018-10-18T17:29:32.694Z,10.83
2018-10-18T17:32:01.291Z,10.80
2018-10-18T17:34:29.895Z,12.53
2018-10-18T17:36:58.600Z,12.60
2018-10-18T17:39:27.196Z,12.77
2018-10-18T17:41:55.789Z,12.60
2018-10-18T17:44:24.366Z,12.17
2018-10-18T17:46:52.905Z,11.10
2018-10-18T17:49:21.442Z,11.93
2018-10-18T17:51:50.023Z,12.47
2018-10-18T17:54:18.614Z,12.20
2018-10-18T17:56:47.191Z,11.30
2018-10-18T17:59:16.009Z,13.47
2018-10-18T18:01:45.067Z,13.87
2018-10-18T18:04:13.694Z,13.17
2018-10-18T18:06:42.963Z,18.57
2018-10-18T18:09:11.484Z,16.03
2018-10-18T18:11:40.214Z,18.73
2018-10-18T18:14:08.748Z,15.93
2018-10-18T18:16:37.273Z,17.67
2018-10-18T18:19:05.949Z,19.53
2018-10-18T18:21:34.466Z,19.50
2018-10-18T18:24:02.957Z,20.83
2018-10-18T18:26:44.790Z,20.93
2018-10-18T18:29:00.295Z,21.30
2018-10-18T18:31:28.858Z,20.67
2018-10-18T18:33:57.420Z,19.80
2018-10-18T18:36:25.844Z,19.00
2018-10-18T18:38:54.395Z,19.70
2018-10-18T18:41:22.964Z,18.37
2018-10-18T18:43:51.576Z,17.77
2018-10-18T18:46:20.075Z,16.80
2018-10-18T18:48:48.576Z,17.40
2018-10-18T18:51:17.171Z,16.07
2018-10-18T18:53:45.605Z,15.67
2018-10-18T18:56:14.098Z,15.23
2018-10-18T18:58:42.602Z,15.17
2018-10-18T19:01:11.254Z,14.83
2018-10-18T19:03:40.062Z,14.73
2018-10-18T19:06:09.715Z,14.67
2018-10-18T19:08:38.289Z,15.53
2018-10-18T19:11:06.943Z,14.77
2018-10-18T19:13:35.727Z,15.23
2018-10-18T19:16:04.229Z,14.77
2018-10-18T19:18:32.813Z,14.37
2018-10-18T19:21:01.259Z,14.97
2018-10-18T19:23:29.843Z,15.00
2018-10-18T19:25:58.414Z,14.73
2018-10-18T19:28:26.931Z,16.37
2018-10-18T19:30:55.574Z,15.57
2018-10-18T19:33:24.112Z,15.37
2018-10-18T19:35:52.741Z,16.37
2018-10-18T19:38:21.279Z,15.90
2018-10-18T19:40:49.853Z,16.97
2018-10-18T19:43:18.432Z,16.50
2018-10-18T19:45:47.171Z,15.47
2018-10-18T19:48:15.752Z,16.03
2018-10-18T19:50:44.400Z,14.93
2018-10-18T19:53:12.939Z,16.17
2018-10-18T19:55:41.464Z,15.43
2018-10-18T19:58:10.161Z,15.97
2018-10-18T20:00:38.623Z,17.00
2018-10-18T20:03:07.171Z,16.83
2018-10-18T20:05:35.821Z,16.73
2018-10-18T20:08:04.583Z,19.00
2018-10-18T20:10:33.317Z,17.03
2018-10-18T20:13:02.194Z,17.70
2018-10-18T20:15:30.677Z,16.37
2018-10-18T20:17:59.285Z,17.97
2018-10-18T20:20:27.916Z,18.87
2018-10-18T20:22:56.495Z,22.30
2018-10-18T20:25:25.099Z,19.63
2018-10-18T20:27:53.596Z,17.50
2018-10-18T20:30:22.411Z,16.70
2018-10-18T20:32:51.007Z,17.63
2018-10-18T20:35:19.593Z,17.33
2018-10-18T20:37:48.111Z,18.27
2018-10-18T20:40:16.640Z,18.97
2018-10-18T20:42:45.160Z,16.83
2018-10-18T20:45:18.904Z,17.20
2018-10-18T20:47:47.548Z,16.87
2018-10-18T20:50:16.064Z,17.93
2018-10-18T20:52:44.663Z,17.00
2018-10-18T20:55:13.220Z,18.10
2018-10-18T20:57:41.757Z,18.70
2018-10-18T21:00:10.508Z,16.77
2018-10-18T21:02:39.075Z,16.60
2018-10-18T21:05:07.637Z,15.97
2018-10-18T21:07:36.240Z,15.63
2018-10-18T21:10:04.824Z,14.40
2018-10-18T21:12:33.393Z,15.10
2018-10-18T21:15:02.182Z,14.03
2018-10-18T21:17:30.640Z,14.17
2018-10-18T21:19:59.219Z,14.07
2018-10-18T21:22:27.806Z,14.67
2018-10-18T21:24:56.395Z,13.67
2018-10-18T21:27:24.896Z,13.53
2018-10-18T21:29:53.463Z,14.20
2018-10-18T21:32:21.999Z,13.23
2018-10-18T21:34:50.688Z,13.53
2018-10-18T21:37:19.229Z,12.50
2018-10-18T21:39:47.682Z,13.13
2018-10-18T21:42:16.293Z,11.50
2018-10-18T21:44:45.537Z,12.07
2018-10-18T21:47:14.228Z,13.23
2018-10-18T21:49:42.699Z,12.93
2018-10-18T21:52:11.219Z,13.57
2018-10-18T21:54:39.695Z,12.47
2018-10-18T21:57:08.320Z,13.23
2018-10-18T21:59:36.886Z,13.23
2018-10-18T22:02:05.673Z,12.40
2018-10-18T22:04:34.266Z,13.00
2018-10-18T22:07:02.826Z,13.93
2018-10-18T22:09:31.359Z,13.97
2018-10-18T22:11:59.872Z,15.37
2018-10-18T22:14:28.492Z,14.50
2018-10-18T22:16:57.160Z,15.47
2018-10-18T22:19:25.571Z,15.53
2018-10-18T22:21:54.150Z,16.43
2018-10-18T22:24:22.668Z,17.67
2018-10-18T22:26:51.329Z,16.70
2018-10-18T22:29:19.865Z,17.13
2018-10-18T22:31:48.481Z,17.53
2018-10-18T22:34:17.037Z,18.07
2018-10-18T22:36:45.619Z,16.70
2018-10-18T22:39:14.316Z,17.07
2018-10-18T22:41:42.980Z,16.97
2018-10-18T22:44:12.669Z,17.40
2018-10-18T22:46:41.322Z,18.23
2018-10-18T22:49:09.976Z,18.37
2018-10-18T22:51:38.698Z,18.13
2018-10-18T22:54:07.393Z,17.40
2018-10-18T22:56:36.396Z,17.57
2018-10-18T22:59:05.123Z,17.87
2018-10-18T23:01:33.813Z,17.10
2018-10-18T23:04:02.413Z,18.13
2018-10-18T23:06:31.000Z,17.20
2018-10-18T23:08:59.843Z,17.97
2018-10-18T23:11:28.501Z,17.70
2018-10-18T23:13:57.165Z,18.93
2018-10-18T23:16:25.821Z,18.20
2018-10-18T23:18:54.434Z,18.37
2018-10-18T23:21:23.062Z,19.00
2018-10-18T23:23:51.625Z,20.33
2018-10-18T23:26:20.268Z,20.00
2018-10-18T23:28:48.834Z,19.80
2018-10-18T23:31:17.569Z,18.23
2018-10-18T23:33:46.201Z,20.77
2018-10-18T23:36:14.802Z,19.60
2018-10-18T23:38:43.495Z,20.10
2018-10-18T23:41:12.121Z,19.50
2018-10-18T23:43:40.664Z,19.87
2018-10-18T23:46:09.344Z,19.13
2018-10-18T23:48:37.942Z,18.43
2018-10-18T23:51:06.488Z,18.27
2018-10-18T23:53:35.041Z,18.00
2018-10-18T23:56:03.753Z,17.93
2018-10-18T23:58:32.352Z,19.10
